ASN logo
ASN Wikibase Occurrence # 269674
Last updated: 27 November 2021
This information is added by users of ASN. Neither ASN nor the Flight Safety Foundation are responsible for the completeness or correctness of this information. If you feel this information is incomplete or incorrect, you can submit corrected information.

Date:17-NOV-2021
Time:23:35 LT
Type:Silhouette image of generic B738 model; specific model in this crash may look slightly different
Boeing 737-8EH (WL)
Owner/operator:Gol Transportes Aereos
Registration: PR-GXH
MSN: 39621/4544
Fatalities:Fatalities: 0 / Occupants: 111
Other fatalities:0
Aircraft damage: Minor
Category:Serious incident
Location:Maringá-Regional de Maringá - Sílvio Nane Junior Airport, PR (MGF/SBMG -   Brazil
Phase: Landing
Nature:Passenger - Scheduled
Departure airport:São Paulo-Guarulhos International Airport, SP (GRU/SBGR)
Destination airport:Maringá-Regional de Maringá - Sílvio Nane Junior Airport, PR (MGF/SBMG)
Investigating agency: CENIPA
Narrative:
GOL flight GLO1108, a Boeing 737-800, suffered a partial runway excursion after landing on runway 28 at Maringá Airport, Brazil. The aircraft damaged runway lights and sustained damage to the undercarriage.

Weather reported about the incident time (0235Z, 18 November):
SBMG 180100Z 16007KT 9999 VCTS FEW003 FEW030CB SCT100 21/20 Q1010
SBMG 180200Z 15005KT 9999 VCTS FEW030 FEW030CB BKN100 21/20 Q1011
SBMG 180300Z 35001KT 8000 -RA BKN020 BKN100 21/20 Q1011 RERA

Sources:

https://g1.globo.com/pr/parana/noticia/2021/11/18/aviao-com-111-pessoas-derrapa-durante-pouso-no-aeroporto-de-maringa-ninguem-se-feriu.ghtml
CENIPA

Other occurrences involving this aircraft

28 Jan 2017 PR-GXH GOL Transportes Aéreos 0 Goiânia-Santa Genoveva Airport, GO (GYN/SBGO) min
Bird strike.


Revision history:

Date/timeContributorUpdates
19-Nov-2021 09:12 gerard57 Added
19-Nov-2021 09:13 gerard57 Updated [Date]
19-Nov-2021 09:49 RobertMB Updated [Aircraft type, Cn, Location, Departure airport, Destination airport, Narrative]
20-Nov-2021 11:07 harro Updated [Registration]
20-Nov-2021 11:10 harro Updated [Registration, Location, Source, Narrative]

Corrections or additions? ... Edit this accident description